createdAt,value
2019-04-20T00:00:15.092Z,70.60
2019-04-20T00:02:46.598Z,70.50
2019-04-20T00:05:10.531Z,70.10
2019-04-20T00:07:37.689Z,69.90
2019-04-20T00:10:10.994Z,70.10
2019-04-20T00:12:51.156Z,70.50
2019-04-20T00:15:04.871Z,70.40
2019-04-20T00:17:32.730Z,70.50
2019-04-20T00:20:04.754Z,70.70
2019-04-20T00:22:50.233Z,70.50
2019-04-20T00:25:20.914Z,70.40
2019-04-20T00:28:25.409Z,70.60
2019-04-20T00:30:55.803Z,70.80
2019-04-20T00:33:14.846Z,70.80
2019-04-20T00:35:31.415Z,71.20
2019-04-20T00:37:59.147Z,71.20
2019-04-20T00:40:25.937Z,71.50
2019-04-20T00:42:56.530Z,71.80
2019-04-20T00:45:27.396Z,72.10
2019-04-20T00:47:57.309Z,72.00
2019-04-20T00:50:34.279Z,72.20
2019-04-20T00:53:00.616Z,72.40
2019-04-20T00:55:17.057Z,72.60
2019-04-20T00:57:50.004Z,72.50
2019-04-20T01:00:33.458Z,72.80
2019-04-20T01:02:50.589Z,73.10
2019-04-20T01:05:35.321Z,73.40
2019-04-20T01:07:56.407Z,73.20
2019-04-20T01:10:23.689Z,72.80
2019-04-20T01:12:51.990Z,73.00
2019-04-20T01:15:29.014Z,73.10
2019-04-20T01:17:48.056Z,73.20
2019-04-20T01:20:15.102Z,73.50
2019-04-20T01:22:50.966Z,73.80
2019-04-20T01:25:18.377Z,73.80
2019-04-20T01:27:59.104Z,74.10
2019-04-20T01:30:17.158Z,74.40
2019-04-20T01:32:57.524Z,74.50
2019-04-20T01:35:24.859Z,74.30
2019-04-20T01:37:54.327Z,74.30
2019-04-20T01:40:07.791Z,74.60
2019-04-20T01:42:34.114Z,74.60
2019-04-20T01:45:05.645Z,74.90
2019-04-20T01:47:36.243Z,75.40
2019-04-20T01:50:03.763Z,75.50
2019-04-20T01:52:35.995Z,75.80
2019-04-20T01:55:23.040Z,76.00
2019-04-20T01:57:54.962Z,76.20
2019-04-20T02:00:25.366Z,76.70
2019-04-20T02:02:58.340Z,76.50
2019-04-20T02:05:24.711Z,76.40
2019-04-20T02:07:51.976Z,76.40
2019-04-20T02:10:18.666Z,76.20
2019-04-20T02:12:51.589Z,76.00
2019-04-20T02:15:24.250Z,75.90
2019-04-20T02:17:52.196Z,75.90
2019-04-20T02:20:34.551Z,76.40
2019-04-20T02:23:06.497Z,77.00
2019-04-20T02:25:16.337Z,77.60
2019-04-20T02:27:48.745Z,77.50
2019-04-20T02:30:53.969Z,77.80
2019-04-20T02:38:53.946Z,77.30
2019-04-20T02:41:03.853Z,77.40
2019-04-20T02:43:41.917Z,77.30
2019-04-20T02:45:58.075Z,76.90
2019-04-20T02:48:31.684Z,76.60
2019-04-20T02:50:59.246Z,76.70
2019-04-20T02:53:30.292Z,76.60
2019-04-20T02:55:57.692Z,76.60
2019-04-20T02:58:29.068Z,76.70
2019-04-20T03:00:47.408Z,76.70
2019-04-20T03:03:06.194Z,76.60
2019-04-20T03:05:31.902Z,76.80
2019-04-20T03:08:10.081Z,77.00
2019-04-20T03:10:42.966Z,77.10
2019-04-20T03:13:08.761Z,77.60
2019-04-20T03:15:38.012Z,77.80
2019-04-20T03:18:03.613Z,77.90
2019-04-20T03:20:36.225Z,78.00
2019-04-20T03:23:18.700Z,78.20
2019-04-20T03:25:53.346Z,78.50
2019-04-20T03:28:19.452Z,78.40
2019-04-20T03:31:26.913Z,78.30
2019-04-20T03:33:35.087Z,78.40
2019-04-20T03:35:52.799Z,78.10
2019-04-20T03:38:15.669Z,78.80
2019-04-20T03:40:37.467Z,78.60
2019-04-20T03:42:52.709Z,78.70
2019-04-20T03:45:22.771Z,79.00
2019-04-20T03:48:02.252Z,79.10
2019-04-20T03:50:45.094Z,79.00
2019-04-20T03:53:10.106Z,78.70
2019-04-20T03:55:41.912Z,78.90
2019-04-20T03:58:22.335Z,79.10
2019-04-20T04:00:50.485Z,79.10
2019-04-20T04:03:36.770Z,78.70
2019-04-20T04:05:55.944Z,79.10
2019-04-20T04:08:17.042Z,79.20
2019-04-20T04:10:54.817Z,79.50
2019-04-20T04:13:09.574Z,79.60
2019-04-20T04:15:47.889Z,79.50
2019-04-20T04:18:13.830Z,79.60
2019-04-20T04:20:43.781Z,79.80
2019-04-20T04:23:24.589Z,79.40
2019-04-20T04:25:54.570Z,79.30
2019-04-20T04:28:20.682Z,79.60
2019-04-20T04:30:41.789Z,79.30
2019-04-20T04:33:44.533Z,79.20
2019-04-20T04:35:44.317Z,79.70
2019-04-20T04:38:15.279Z,79.90
2019-04-20T04:40:49.822Z,79.90
2019-04-20T04:43:15.992Z,80.10
2019-04-20T04:45:26.763Z,80.00
2019-04-20T04:47:51.527Z,80.10
2019-04-20T04:50:24.522Z,79.70
2019-04-20T04:52:57.339Z,80.00
2019-04-20T04:55:25.704Z,80.20
2019-04-20T04:57:45.395Z,79.90
2019-04-20T05:00:17.908Z,79.00
2019-04-20T05:02:46.582Z,78.10
2019-04-20T05:05:39.222Z,77.30
2019-04-20T05:07:58.362Z,77.60
2019-04-20T05:10:15.992Z,77.40
2019-04-20T05:12:44.012Z,76.70
2019-04-20T05:15:22.590Z,76.20
2019-04-20T05:18:01.759Z,75.90
2019-04-20T05:20:33.099Z,75.80
2019-04-20T05:23:03.986Z,74.90
2019-04-20T05:25:30.919Z,74.20
2019-04-20T05:28:05.287Z,73.90
2019-04-20T05:30:16.349Z,74.00
2019-04-20T05:32:54.381Z,75.00
2019-04-20T05:35:33.637Z,75.50
2019-04-20T05:38:06.887Z,75.50
2019-04-20T05:40:35.290Z,74.90
2019-04-20T05:43:03.137Z,74.90
2019-04-20T05:45:24.997Z,74.80
2019-04-20T05:47:52.656Z,74.90
2019-04-20T05:50:29.297Z,74.20
2019-04-20T05:53:04.484Z,73.00
2019-04-20T05:55:31.358Z,71.80
2019-04-20T05:57:56.571Z,71.10
2019-04-20T06:00:34.930Z,71.10
2019-04-20T06:02:56.042Z,70.70
2019-04-20T06:05:27.758Z,70.50
2019-04-20T06:07:54.882Z,68.30
2019-04-20T06:10:27.403Z,68.60
2019-04-20T06:12:55.745Z,69.50
2019-04-20T06:15:37.055Z,71.00
2019-04-20T06:18:02.750Z,70.60
2019-04-20T06:20:37.986Z,70.60
2019-04-20T06:23:28.634Z,70.70
2019-04-20T06:26:11.113Z,70.80
2019-04-20T06:28:17.317Z,70.40
2019-04-20T06:30:51.085Z,70.20
2019-04-20T06:34:19.748Z,68.90
2019-04-20T06:36:33.198Z,68.00
2019-04-20T06:39:02.664Z,67.00
2019-04-20T06:41:36.022Z,65.70
2019-04-20T06:46:22.304Z,66.50
2019-04-20T06:48:51.353Z,67.00
2019-04-20T06:51:36.107Z,65.60
2019-04-20T06:54:14.798Z,64.30
2019-04-20T06:56:57.142Z,64.40
2019-04-20T06:59:27.560Z,65.80
2019-04-20T07:02:05.214Z,65.00
2019-04-20T07:06:54.920Z,64.20
2019-04-20T07:09:21.778Z,63.50
2019-04-20T07:11:46.449Z,64.80
2019-04-20T07:14:02.859Z,63.90
2019-04-20T07:16:54.428Z,64.20
2019-04-20T07:19:29.671Z,63.30
2019-04-20T07:22:36.092Z,62.50
2019-04-20T07:24:54.029Z,61.90
2019-04-20T07:27:12.142Z,61.60
2019-04-20T07:29:47.920Z,61.30
2019-04-20T07:32:07.657Z,62.00
2019-04-20T07:34:38.771Z,61.60
2019-04-20T07:37:35.152Z,60.60
2019-04-20T07:39:44.880Z,60.80
2019-04-20T07:42:18.809Z,59.80
2019-04-20T07:44:43.983Z,60.80
2019-04-20T07:47:13.743Z,59.70
2019-04-20T07:49:34.639Z,60.10
2019-04-20T07:51:47.065Z,59.40
2019-04-20T07:54:40.199Z,58.50
2019-04-20T07:56:58.526Z,59.70
2019-04-20T07:59:22.465Z,59.40
2019-04-20T08:02:16.247Z,59.50
2019-04-20T08:04:33.883Z,59.60
2019-04-20T08:06:51.891Z,59.30
2019-04-20T08:09:21.849Z,58.70
2019-04-20T08:12:14.162Z,58.30
2019-04-20T08:14:42.520Z,57.10
2019-04-20T08:17:13.990Z,57.60
2019-04-20T08:19:28.790Z,57.40
2019-04-20T08:21:58.820Z,57.10
2019-04-20T08:24:23.216Z,56.70
2019-04-20T08:26:43.469Z,56.80
2019-04-20T08:29:21.625Z,56.20
2019-04-20T08:32:04.823Z,56.20
2019-04-20T08:34:35.367Z,55.70
2019-04-20T08:37:03.225Z,54.90
2019-04-20T08:42:00.442Z,55.00
2019-04-20T08:44:48.495Z,55.90
2019-04-20T08:47:06.181Z,55.90
2019-04-20T08:49:29.612Z,55.60
2019-04-20T08:52:08.258Z,54.60
2019-04-20T08:54:22.108Z,55.40
2019-04-20T08:56:39.354Z,55.90
2019-04-20T08:58:59.650Z,56.00
2019-04-20T09:01:29.106Z,55.80
2019-04-20T09:04:05.466Z,56.90
2019-04-20T09:06:40.203Z,56.30
2019-04-20T09:09:11.652Z,56.70
2019-04-20T09:11:48.166Z,58.40
2019-04-20T09:13:56.412Z,57.20
2019-04-20T09:16:26.891Z,56.20
2019-04-20T09:18:56.935Z,56.70
2019-04-20T09:21:29.720Z,55.70
2019-04-20T09:24:10.770Z,56.80
2019-04-20T09:26:37.378Z,56.40
2019-04-20T09:28:59.159Z,54.60
2019-04-20T09:31:35.158Z,55.70
2019-04-20T09:34:16.179Z,54.90
2019-04-20T09:36:42.337Z,54.40
2019-04-20T09:39:16.403Z,55.10
2019-04-20T09:41:59.119Z,54.30
2019-04-20T09:44:06.773Z,53.10
2019-04-20T09:46:39.999Z,55.30
2019-04-20T09:49:13.142Z,54.30
2019-04-20T09:51:54.013Z,53.00
2019-04-20T09:54:18.881Z,53.50
2019-04-20T09:56:48.621Z,54.00
2019-04-20T09:59:16.693Z,53.50
2019-04-20T10:01:34.027Z,54.10
2019-04-20T10:03:54.764Z,54.10
2019-04-20T10:06:24.950Z,53.00
2019-04-20T10:08:54.180Z,52.90
2019-04-20T10:11:19.395Z,52.40
2019-04-20T10:13:46.293Z,53.20
2019-04-20T10:16:13.533Z,52.80
2019-04-20T10:18:45.494Z,52.60
2019-04-20T10:21:09.687Z,51.50
2019-04-20T10:23:36.690Z,52.90
2019-04-20T10:26:04.501Z,53.40
2019-04-20T10:28:31.849Z,53.80
2019-04-20T10:30:59.038Z,52.80
2019-04-20T10:33:25.885Z,52.50
2019-04-20T10:35:53.824Z,51.70
2019-04-20T10:38:23.300Z,52.60
2019-04-20T10:40:58.385Z,51.30
2019-04-20T10:43:19.836Z,50.80
2019-04-20T10:45:46.898Z,50.20
2019-04-20T10:48:15.149Z,49.70
2019-04-20T10:50:43.128Z,50.20
2019-04-20T10:53:10.349Z,51.20
2019-04-20T10:55:37.739Z,49.10
2019-04-20T10:58:04.712Z,49.10
2019-04-20T11:00:35.583Z,49.40
2019-04-20T11:03:03.786Z,49.30
2019-04-20T11:05:30.765Z,49.80
2019-04-20T11:07:58.720Z,49.90
2019-04-20T11:10:28.924Z,49.60
2019-04-20T11:12:55.125Z,48.70
2019-04-20T11:15:21.916Z,48.90
2019-04-20T11:17:49.107Z,48.50
2019-04-20T11:20:17.229Z,46.60
2019-04-20T11:22:44.335Z,47.90
2019-04-20T11:25:12.445Z,46.50
2019-04-20T11:27:40.491Z,47.00
2019-04-20T11:30:08.192Z,48.10
2019-04-20T11:32:36.045Z,48.30
2019-04-20T11:35:09.089Z,46.40
2019-04-20T11:37:33.225Z,47.60
2019-04-20T11:40:01.194Z,47.60
2019-04-20T11:42:28.270Z,47.50
2019-04-20T11:44:55.067Z,47.50
2019-04-20T11:47:21.948Z,46.40
2019-04-20T11:49:49.345Z,46.80
2019-04-20T11:52:19.392Z,45.80
2019-04-20T11:54:46.085Z,47.20
2019-04-20T11:57:13.344Z,48.50
2019-04-20T11:59:41.203Z,46.30
2019-04-20T12:02:21.616Z,46.90
2019-04-20T12:04:49.932Z,47.50
2019-04-20T12:07:12.910Z,47.30
2019-04-20T12:09:39.860Z,46.70
2019-04-20T12:12:14.196Z,46.60
2019-04-20T12:14:36.702Z,43.70
2019-04-20T12:17:03.819Z,45.60
2019-04-20T12:19:31.193Z,44.10
2019-04-20T12:21:58.255Z,43.70
2019-04-20T12:24:25.097Z,44.20
2019-04-20T12:26:51.920Z,44.20
2019-04-20T12:29:19.519Z,44.60
2019-04-20T12:31:52.239Z,44.20
2019-04-20T12:34:16.197Z,44.50
2019-04-20T12:36:43.126Z,45.00
2019-04-20T12:39:10.998Z,45.20
2019-04-20T12:41:45.266Z,45.20
2019-04-20T12:44:07.825Z,45.50
2019-04-20T12:46:36.006Z,44.30
2019-04-20T12:49:03.082Z,43.60
2019-04-20T12:51:33.524Z,45.70
2019-04-20T12:53:58.611Z,46.30
2019-04-20T12:56:26.520Z,44.70
2019-04-20T12:58:53.665Z,45.80
2019-04-20T13:01:22.325Z,45.60
2019-04-20T13:03:49.860Z,43.60
2019-04-20T13:06:16.797Z,43.50
2019-04-20T13:08:51.206Z,44.70
2019-04-20T13:11:24.749Z,43.60
2019-04-20T13:14:12.554Z,44.20
2019-04-20T13:16:40.541Z,43.60
2019-04-20T13:19:08.861Z,43.10
2019-04-20T13:21:36.805Z,44.00
2019-04-20T13:24:05.067Z,42.50
2019-04-20T13:26:33.249Z,42.80
2019-04-20T13:29:00.991Z,42.80
2019-04-20T13:31:29.550Z,43.20
2019-04-20T13:33:57.180Z,44.90
2019-04-20T13:36:24.255Z,41.90
2019-04-20T13:38:52.259Z,43.50
2019-04-20T13:41:19.829Z,43.90
2019-04-20T13:43:48.055Z,42.50
2019-04-20T13:46:15.132Z,42.70
2019-04-20T13:48:43.224Z,42.80
2019-04-20T13:51:10.171Z,42.60
2019-04-20T13:53:37.249Z,42.60
2019-04-20T13:56:04.091Z,41.20
2019-04-20T13:58:47.741Z,41.30
2019-04-20T14:01:34.501Z,42.20
2019-04-20T14:04:03.860Z,42.00
2019-04-20T14:06:33.096Z,40.80
2019-04-20T14:09:01.263Z,41.20
2019-04-20T14:11:29.311Z,40.90
2019-04-20T14:14:00.330Z,41.40
2019-04-20T14:16:25.097Z,41.80
2019-04-20T14:18:53.217Z,41.40
2019-04-20T14:21:20.437Z,41.80
2019-04-20T14:23:47.218Z,40.60
2019-04-20T14:26:14.988Z,39.40
2019-04-20T14:28:42.942Z,39.90
2019-04-20T14:31:09.936Z,42.00
2019-04-20T14:33:37.023Z,41.20
2019-04-20T14:36:05.145Z,41.70
2019-04-20T14:38:32.101Z,41.90
2019-04-20T14:41:00.103Z,41.40
2019-04-20T14:43:29.804Z,42.40
2019-04-20T14:45:56.673Z,41.70
2019-04-20T14:48:24.928Z,42.50
2019-04-20T14:50:51.998Z,40.50
2019-04-20T14:53:19.878Z,42.80
2019-04-20T14:55:47.205Z,42.30
2019-04-20T14:58:33.426Z,41.50
2019-04-20T15:01:03.070Z,41.60
2019-04-20T15:03:37.274Z,41.00
2019-04-20T15:06:05.407Z,41.70
2019-04-20T15:08:32.680Z,41.10
2019-04-20T15:11:00.911Z,42.10
2019-04-20T15:13:28.874Z,42.00
2019-04-20T15:15:56.826Z,41.60
2019-04-20T15:18:27.234Z,41.10
2019-04-20T15:20:57.356Z,41.40
2019-04-20T15:23:25.784Z,42.70
2019-04-20T15:25:52.842Z,41.90
2019-04-20T15:28:20.662Z,41.70
2019-04-20T15:30:48.205Z,41.00
2019-04-20T15:33:15.035Z,42.20
2019-04-20T15:35:42.040Z,41.00
2019-04-20T15:38:09.254Z,41.40
2019-04-20T15:40:37.157Z,43.00
2019-04-20T15:43:11.832Z,42.50
2019-04-20T15:45:33.684Z,42.40
2019-04-20T15:48:01.797Z,43.10
2019-04-20T15:50:29.810Z,42.00
2019-04-20T15:52:58.766Z,41.10
2019-04-20T15:55:31.028Z,42.00
2019-04-20T15:57:55.570Z,42.60
2019-04-20T16:00:22.597Z,42.40
2019-04-20T16:02:51.494Z,41.70
2019-04-20T16:05:37.683Z,41.60
2019-04-20T16:08:10.634Z,41.60
2019-04-20T16:10:39.186Z,41.50
2019-04-20T16:13:18.189Z,41.90
2019-04-20T16:15:35.839Z,42.10
2019-04-20T16:18:03.132Z,42.00
2019-04-20T16:20:43.508Z,43.10
2019-04-20T16:22:58.764Z,42.60
2019-04-20T16:25:32.946Z,41.60
2019-04-20T16:27:59.801Z,43.30
2019-04-20T16:30:27.564Z,43.10
2019-04-20T16:32:54.696Z,43.50
2019-04-20T16:35:22.559Z,42.60
2019-04-20T16:37:50.759Z,43.60
2019-04-20T16:40:17.857Z,43.10
2019-04-20T16:42:45.528Z,42.80
2019-04-20T16:45:13.046Z,43.30
2019-04-20T16:47:39.965Z,43.00
2019-04-20T16:50:06.970Z,43.30
2019-04-20T16:52:34.797Z,43.10
2019-04-20T16:55:02.135Z,43.30
2019-04-20T16:57:29.859Z,43.20
2019-04-20T16:59:59.265Z,43.30
2019-04-20T17:02:26.469Z,43.70
2019-04-20T17:04:55.002Z,44.10
2019-04-20T17:07:26.827Z,44.30
2019-04-20T17:09:54.029Z,44.80
2019-04-20T17:12:21.711Z,44.20
2019-04-20T17:14:49.488Z,44.40
2019-04-20T17:17:17.674Z,44.20
2019-04-20T17:19:45.977Z,43.50
2019-04-20T17:22:13.855Z,44.10
2019-04-20T17:24:40.749Z,44.80
2019-04-20T17:27:26.740Z,44.10
2019-04-20T17:30:05.234Z,44.10
2019-04-20T17:32:34.196Z,44.50
2019-04-20T17:35:15.794Z,45.00
2019-04-20T17:37:34.693Z,44.90
2019-04-20T17:40:19.061Z,44.70
2019-04-20T17:42:40.089Z,45.10
2019-04-20T17:45:03.776Z,44.80
2019-04-20T17:47:44.855Z,44.90
2019-04-20T17:50:13.190Z,44.00
2019-04-20T17:52:46.051Z,44.30
2019-04-20T17:55:19.678Z,44.90
2019-04-20T17:57:37.345Z,45.40
2019-04-20T18:00:19.438Z,45.10
2019-04-20T18:03:06.134Z,44.40
2019-04-20T18:05:39.467Z,45.20
2019-04-20T18:08:10.321Z,45.70
2019-04-20T18:10:30.288Z,45.50
2019-04-20T18:12:50.193Z,45.60
2019-04-20T18:15:33.542Z,46.00
2019-04-20T18:18:20.217Z,44.80
2019-04-20T18:20:41.149Z,46.30
2019-04-20T18:23:08.600Z,46.40
2019-04-20T18:26:00.275Z,46.20
2019-04-20T18:28:15.063Z,46.60
2019-04-20T18:30:58.506Z,46.50
2019-04-20T18:33:26.034Z,46.40
2019-04-20T18:35:51.049Z,45.50
2019-04-20T18:38:20.164Z,46.90
2019-04-20T18:40:55.718Z,47.30
2019-04-20T18:43:20.496Z,47.70
2019-04-20T18:46:03.735Z,48.10
2019-04-20T18:48:32.398Z,48.50
2019-04-20T18:50:44.218Z,49.40
2019-04-20T18:53:16.631Z,49.60
2019-04-20T18:55:43.751Z,50.00
2019-04-20T18:58:07.466Z,50.00
2019-04-20T19:00:40.441Z,50.50
2019-04-20T19:03:13.287Z,50.80
2019-04-20T19:05:31.726Z,51.50
2019-04-20T19:08:03.360Z,52.20
2019-04-20T19:10:31.344Z,51.40
2019-04-20T19:13:01.336Z,51.10
2019-04-20T19:15:51.272Z,51.60
2019-04-20T19:18:18.345Z,51.70
2019-04-20T19:20:35.009Z,52.20
2019-04-20T19:23:02.200Z,52.40
2019-04-20T19:25:34.554Z,52.80
2019-04-20T19:28:00.983Z,52.60
2019-04-20T19:30:35.329Z,52.30
2019-04-20T19:33:15.047Z,52.70
2019-04-20T19:35:33.672Z,53.10
2019-04-20T19:38:03.379Z,53.50
2019-04-20T19:40:33.758Z,52.90
2019-04-20T19:43:02.408Z,52.40
2019-04-20T19:45:42.636Z,52.50
2019-04-20T19:48:04.711Z,52.30
2019-04-20T19:50:54.736Z,52.70
2019-04-20T19:53:11.275Z,53.40
2019-04-20T19:55:28.587Z,54.10
2019-04-20T19:57:58.855Z,54.60
2019-04-20T20:00:11.579Z,54.90
2019-04-20T20:02:39.550Z,55.10
2019-04-20T20:05:10.286Z,55.30
2019-04-20T20:07:38.812Z,55.60
2019-04-20T20:10:08.910Z,56.70
2019-04-20T20:12:35.665Z,56.40
2019-04-20T20:15:06.469Z,56.60
2019-04-20T20:17:48.535Z,56.30
2019-04-20T20:20:29.044Z,55.90
2019-04-20T20:22:38.899Z,55.70
2019-04-20T20:24:59.002Z,56.00
2019-04-20T20:27:32.552Z,55.70
2019-04-20T20:30:04.166Z,56.30
2019-04-20T20:32:39.120Z,56.20
2019-04-20T20:35:04.451Z,55.20
2019-04-20T20:37:27.165Z,55.30
2019-04-20T20:40:02.231Z,56.00
2019-04-20T20:42:32.174Z,56.10
2019-04-20T20:44:55.152Z,56.50
2019-04-20T20:47:36.878Z,56.90
2019-04-20T20:50:08.715Z,57.50
2019-04-20T20:52:29.141Z,57.60
2019-04-20T20:54:52.785Z,58.40
2019-04-20T20:57:15.381Z,58.80
2019-04-20T20:59:50.775Z,59.00
2019-04-20T21:02:14.229Z,59.30
2019-04-20T21:04:37.618Z,59.50
2019-04-20T21:07:04.693Z,60.10
2019-04-20T21:09:31.472Z,60.20
2019-04-20T21:12:03.466Z,60.00
2019-04-20T21:14:29.922Z,60.20
2019-04-20T21:17:03.035Z,60.40
2019-04-20T21:19:46.565Z,60.80
2019-04-20T21:22:01.015Z,59.10
2019-04-20T21:24:30.298Z,59.30
2019-04-20T21:27:00.642Z,59.50
2019-04-20T21:29:34.012Z,59.50
2019-04-20T21:32:02.884Z,59.40
2019-04-20T21:34:24.137Z,59.30
2019-04-20T21:36:56.203Z,58.90
2019-04-20T21:39:30.748Z,58.90
2019-04-20T21:41:56.880Z,59.40
2019-04-20T21:44:24.958Z,58.80
2019-04-20T21:46:51.160Z,58.70
2019-04-20T21:49:30.663Z,59.00
2019-04-20T21:51:51.374Z,58.90
2019-04-20T21:54:12.149Z,59.60
2019-04-20T21:56:46.090Z,59.80
2019-04-20T21:59:16.461Z,61.00
2019-04-20T22:01:41.145Z,61.40
2019-04-20T22:04:06.096Z,61.80
2019-04-20T22:06:34.247Z,62.10
2019-04-20T22:09:02.847Z,62.30
2019-04-20T22:11:29.740Z,62.40
2019-04-20T22:13:57.443Z,63.30
2019-04-20T22:16:31.258Z,63.30
2019-04-20T22:19:10.328Z,63.30
2019-04-20T22:21:29.742Z,63.30
2019-04-20T22:24:04.148Z,63.80
2019-04-20T22:26:30.006Z,63.90
2019-04-20T22:28:47.971Z,64.10
2019-04-20T22:31:15.967Z,64.80
2019-04-20T22:33:44.943Z,65.00
2019-04-20T22:36:13.105Z,65.00
2019-04-20T22:39:01.273Z,65.40
2019-04-20T22:41:27.916Z,65.90
2019-04-20T22:43:54.882Z,65.60
2019-04-20T22:46:26.779Z,65.30
2019-04-20T22:49:00.753Z,65.30
2019-04-20T22:51:37.332Z,65.30
2019-04-20T22:53:56.356Z,65.50
2019-04-20T22:56:35.380Z,66.40
2019-04-20T22:58:54.158Z,66.50
2019-04-20T23:01:25.169Z,66.70
2019-04-20T23:03:42.998Z,67.10
2019-04-20T23:06:09.939Z,67.40
2019-04-20T23:08:36.728Z,67.60
2019-04-20T23:11:05.881Z,68.40
2019-04-20T23:13:37.797Z,68.90
2019-04-20T23:16:02.651Z,70.00
2019-04-20T23:18:29.889Z,70.80
2019-04-20T23:21:01.309Z,70.80
2019-04-20T23:23:28.863Z,70.20
2019-04-20T23:25:53.985Z,69.80
2019-04-20T23:28:23.094Z,69.20
2019-04-20T23:30:51.919Z,68.80
2019-04-20T23:33:18.340Z,68.70
2019-04-20T23:35:49.895Z,68.50
2019-04-20T23:38:18.047Z,68.10
2019-04-20T23:40:43.461Z,68.10
2019-04-20T23:43:26.924Z,68.40
2019-04-20T23:45:52.897Z,68.50
2019-04-20T23:48:28.467Z,69.10
2019-04-20T23:51:08.728Z,69.30
2019-04-20T23:53:39.221Z,68.90
2019-04-20T23:55:51.961Z,69.00
2019-04-20T23:58:19.485Z,69.00
